sensor_id;sensor_type;location;lat;lon;timestamp;pressure;altitude;pressure_sealevel;temperature;humidity
53940;BME280;39850;43.324;21.916;2023-09-19T00:30:18;993.0;;;18.9;67.0
53940;BME280;39850;43.324;21.916;2023-09-19T00:34:54;993.0;;;18.9;67.0
53940;BME280;39850;43.324;21.916;2023-09-19T00:39:30;993.0;;;18.9;67.0
53940;BME280;39850;43.324;21.916;2023-09-19T00:44:08;993.0;;;18.9;67.0
53940;BME280;39850;43.324;21.916;2023-09-19T00:48:45;993.0;;;18.9;67.0
53940;BME280;39850;43.324;21.916;2023-09-19T00:53:25;993.0;;;18.9;67.0
53940;BME280;39850;43.324;21.916;2023-09-19T00:58:04;993.0;;;19.0;67.0
53940;BME280;39850;43.324;21.916;2023-09-19T01:02:43;993.0;;;19.0;67.0
53940;BME280;39850;43.324;21.916;2023-09-19T01:07:20;993.0;;;19.1;67.0
53940;BME280;39850;43.324;21.916;2023-09-19T01:12:09;993.0;;;19.1;67.0
53940;BME280;39850;43.324;21.916;2023-09-19T01:47:52;992.0;;;18.0;67.0
53940;BME280;39850;43.324;21.916;2023-09-19T01:53:03;992.0;;;18.0;67.0
53940;BME280;39850;43.324;21.916;2023-09-19T01:58:21;992.0;;;18.0;67.0
53940;BME280;39850;43.324;21.916;2023-09-19T02:03:13;992.0;;;18.0;67.0
53940;BME280;39850;43.324;21.916;2023-09-19T02:07:52;992.0;;;18.0;67.0
53940;BME280;39850;43.324;21.916;2023-09-19T02:12:30;992.0;;;18.0;67.0
53940;BME280;39850;43.324;21.916;2023-09-19T02:17:07;992.0;;;18.1;67.0
53940;BME280;39850;43.324;21.916;2023-09-19T02:21:43;992.0;;;18.1;67.0
53940;BME280;39850;43.324;21.916;2023-09-19T02:26:20;992.0;;;18.2;67.0
53940;BME280;39850;43.324;21.916;2023-09-19T02:30:57;992.0;;;18.2;67.0
53940;BME280;39850;43.324;21.916;2023-09-19T02:35:34;992.0;;;18.2;67.0
53940;BME280;39850;43.324;21.916;2023-09-19T03:07:51;992.0;;;17.1;71.0
53940;BME280;39850;43.324;21.916;2023-09-19T03:12:28;992.0;;;17.1;71.0
53940;BME280;39850;43.324;21.916;2023-09-19T03:17:04;992.0;;;17.1;71.0
53940;BME280;39850;43.324;21.916;2023-09-19T03:21:41;992.0;;;17.1;71.0
53940;BME280;39850;43.324;21.916;2023-09-19T03:26:18;992.0;;;17.1;71.0
53940;BME280;39850;43.324;21.916;2023-09-19T03:31:07;992.0;;;17.1;71.0
53940;BME280;39850;43.324;21.916;2023-09-19T03:35:53;992.0;;;17.1;71.0
53940;BME280;39850;43.324;21.916;2023-09-19T03:40:30;992.0;;;17.1;72.0
53940;BME280;39850;43.324;21.916;2023-09-19T03:45:10;992.0;;;17.1;72.0
53940;BME280;39850;43.324;21.916;2023-09-19T03:49:47;992.0;;;17.1;72.0
53940;BME280;39850;43.324;21.916;2023-09-19T03:54:24;992.0;;;17.1;72.0
53940;BME280;39850;43.324;21.916;2023-09-19T04:26:45;992.0;;;17.3;73.0
53940;BME280;39850;43.324;21.916;2023-09-19T04:31:22;992.0;;;17.3;73.0
53940;BME280;39850;43.324;21.916;2023-09-19T04:35:58;992.0;;;17.3;73.0
53940;BME280;39850;43.324;21.916;2023-09-19T04:40:35;992.0;;;17.0;74.0
53940;BME280;39850;43.324;21.916;2023-09-19T04:45:13;992.0;;;17.0;74.0
53940;BME280;39850;43.324;21.916;2023-09-19T04:49:49;992.0;;;17.3;74.0
53940;BME280;39850;43.324;21.916;2023-09-19T04:54:26;992.0;;;17.3;74.0
53940;BME280;39850;43.324;21.916;2023-09-19T04:59:02;992.0;;;17.0;74.0
53940;BME280;39850;43.324;21.916;2023-09-19T05:03:39;992.0;;;17.0;74.0
53940;BME280;39850;43.324;21.916;2023-09-19T05:08:15;992.0;;;17.3;74.0
53940;BME280;39850;43.324;21.916;2023-09-19T05:12:54;992.0;;;17.3;74.0
53940;BME280;39850;43.324;21.916;2023-09-19T05:49:46;992.0;;;17.2;75.0
53940;BME280;39850;43.324;21.916;2023-09-19T05:54:22;992.0;;;17.2;75.0
53940;BME280;39850;43.324;21.916;2023-09-19T05:58:59;992.0;;;17.2;75.0
53940;BME280;39850;43.324;21.916;2023-09-19T06:03:36;992.0;;;17.2;75.0
53940;BME280;39850;43.324;21.916;2023-09-19T06:08:12;992.0;;;17.2;75.0
53940;BME280;39850;43.324;21.916;2023-09-19T06:12:50;992.0;;;17.2;75.0
53940;BME280;39850;43.324;21.916;2023-09-19T06:17:26;992.0;;;17.2;74.0
53940;BME280;39850;43.324;21.916;2023-09-19T06:22:04;992.0;;;17.2;74.0
53940;BME280;39850;43.324;21.916;2023-09-19T06:26:40;992.0;;;17.2;74.0
53940;BME280;39850;43.324;21.916;2023-09-19T06:31:17;992.0;;;17.2;73.0
53940;BME280;39850;43.324;21.916;2023-09-19T06:35:53;992.0;;;17.2;73.0
53940;BME280;39850;43.324;21.916;2023-09-19T07:08:12;992.0;;;18.1;70.0
53940;BME280;39850;43.324;21.916;2023-09-19T07:12:58;992.0;;;18.1;70.0
53940;BME280;39850;43.324;21.916;2023-09-19T07:17:35;992.0;;;18.0;70.0
53940;BME280;39850;43.324;21.916;2023-09-19T07:22:11;992.0;;;18.0;70.0
53940;BME280;39850;43.324;21.916;2023-09-19T07:26:48;992.0;;;18.0;70.0
53940;BME280;39850;43.324;21.916;2023-09-19T07:31:24;992.0;;;18.1;69.0
53940;BME280;39850;43.324;21.916;2023-09-19T07:36:00;992.0;;;18.1;69.0
53940;BME280;39850;43.324;21.916;2023-09-19T07:40:37;992.0;;;18.2;69.0
53940;BME280;39850;43.324;21.916;2023-09-19T07:45:14;992.0;;;18.2;69.0
53940;BME280;39850;43.324;21.916;2023-09-19T07:49:50;992.0;;;18.5;69.0
53940;BME280;39850;43.324;21.916;2023-09-19T07:54:27;992.0;;;18.5;69.0
53940;BME280;39850;43.324;21.916;2023-09-19T08:31:23;992.0;;;19.9;66.0
53940;BME280;39850;43.324;21.916;2023-09-19T08:36:01;992.0;;;19.9;66.0
53940;BME280;39850;43.324;21.916;2023-09-19T08:40:39;992.0;;;20.0;65.0
53940;BME280;39850;43.324;21.916;2023-09-19T08:45:16;992.0;;;20.0;65.0
53940;BME280;39850;43.324;21.916;2023-09-19T08:50:27;992.0;;;20.2;64.0
53940;BME280;39850;43.324;21.916;2023-09-19T08:55:14;992.0;;;20.2;64.0
53940;BME280;39850;43.324;21.916;2023-09-19T08:59:54;992.0;;;20.5;63.0
53940;BME280;39850;43.324;21.916;2023-09-19T09:04:35;992.0;;;20.5;63.0
53940;BME280;39850;43.324;21.916;2023-09-19T09:09:12;992.0;;;20.8;62.0
53940;BME280;39850;43.324;21.916;2023-09-19T09:13:49;992.0;;;20.8;62.0
53940;BME280;39850;43.324;21.916;2023-09-19T09:51:00;992.0;;;21.7;60.0
53940;BME280;39850;43.324;21.916;2023-09-19T09:56:08;992.0;;;21.7;60.0
53940;BME280;39850;43.324;21.916;2023-09-19T10:00:56;992.0;;;21.8;59.0
53940;BME280;39850;43.324;21.916;2023-09-19T10:05:34;992.0;;;21.8;59.0
53940;BME280;39850;43.324;21.916;2023-09-19T10:10:11;992.0;;;21.8;59.0
53940;BME280;39850;43.324;21.916;2023-09-19T10:14:49;992.0;;;21.8;59.0
53940;BME280;39850;43.324;21.916;2023-09-19T10:19:56;992.0;;;21.9;59.0
53940;BME280;39850;43.324;21.916;2023-09-19T10:24:40;992.0;;;21.9;59.0
53940;BME280;39850;43.324;21.916;2023-09-19T10:29:22;992.0;;;21.8;59.0
53940;BME280;39850;43.324;21.916;2023-09-19T10:34:08;992.0;;;21.8;59.0
53940;BME280;39850;43.324;21.916;2023-09-19T11:11:51;991.0;;;22.6;56.0
53940;BME280;39850;43.324;21.916;2023-09-19T11:16:28;991.0;;;22.6;56.0
53940;BME280;39850;43.324;21.916;2023-09-19T11:21:53;991.0;;;23.0;56.0
53940;BME280;39850;43.324;21.916;2023-09-19T11:26:46;991.0;;;23.0;56.0
53940;BME280;39850;43.324;21.916;2023-09-19T11:31:45;991.0;;;23.3;56.0
53940;BME280;39850;43.324;21.916;2023-09-19T11:36:36;991.0;;;23.3;56.0
53940;BME280;39850;43.324;21.916;2023-09-19T11:41:44;990.0;;;23.5;55.0
53940;BME280;39850;43.324;21.916;2023-09-19T11:46:22;990.0;;;23.5;55.0
53940;BME280;39850;43.324;21.916;2023-09-19T11:50:59;990.0;;;23.7;56.0
53940;BME280;39850;43.324;21.916;2023-09-19T11:55:38;990.0;;;23.7;56.0
53940;BME280;39850;43.324;21.916;2023-09-19T12:32:38;989.0;;;24.4;53.0
53940;BME280;39850;43.324;21.916;2023-09-19T12:37:17;989.0;;;24.4;53.0
53940;BME280;39850;43.324;21.916;2023-09-19T12:41:55;989.0;;;24.4;53.0
53940;BME280;39850;43.324;21.916;2023-09-19T12:46:32;989.0;;;24.4;53.0
53940;BME280;39850;43.324;21.916;2023-09-19T12:51:11;989.0;;;24.4;53.0
53940;BME280;39850;43.324;21.916;2023-09-19T12:56:00;989.0;;;24.4;53.0
53940;BME280;39850;43.324;21.916;2023-09-19T13:00:45;989.0;;;24.8;53.0
53940;BME280;39850;43.324;21.916;2023-09-19T13:05:52;989.0;;;24.8;53.0
53940;BME280;39850;43.324;21.916;2023-09-19T13:10:30;989.0;;;25.1;53.0
53940;BME280;39850;43.324;21.916;2023-09-19T13:15:09;989.0;;;25.1;53.0
53940;BME280;39850;43.324;21.916;2023-09-19T13:52:12;989.0;;;25.5;51.0
53940;BME280;39850;43.324;21.916;2023-09-19T13:56:48;989.0;;;25.5;51.0
53940;BME280;39850;43.324;21.916;2023-09-19T14:01:24;989.0;;;25.5;51.0
53940;BME280;39850;43.324;21.916;2023-09-19T14:06:01;989.0;;;25.5;51.0
53940;BME280;39850;43.324;21.916;2023-09-19T14:10:37;989.0;;;25.5;51.0
53940;BME280;39850;43.324;21.916;2023-09-19T14:15:14;989.0;;;25.5;51.0
53940;BME280;39850;43.324;21.916;2023-09-19T14:19:51;989.0;;;25.5;51.0
53940;BME280;39850;43.324;21.916;2023-09-19T14:24:27;989.0;;;25.5;51.0
53940;BME280;39850;43.324;21.916;2023-09-19T14:29:05;989.0;;;25.5;51.0
53940;BME280;39850;43.324;21.916;2023-09-19T14:33:41;989.0;;;25.5;51.0
53940;BME280;39850;43.324;21.916;2023-09-19T14:38:18;989.0;;;25.5;51.0
53940;BME280;39850;43.324;21.916;2023-09-19T15:10:51;989.0;;;24.6;58.0
53940;BME280;39850;43.324;21.916;2023-09-19T15:15:28;989.0;;;24.6;58.0
53940;BME280;39850;43.324;21.916;2023-09-19T15:20:10;989.0;;;24.6;58.0
53940;BME280;39850;43.324;21.916;2023-09-19T15:24:46;989.0;;;24.6;58.0
53940;BME280;39850;43.324;21.916;2023-09-19T15:29:23;989.0;;;24.0;58.0
53940;BME280;39850;43.324;21.916;2023-09-19T15:34:00;989.0;;;24.0;58.0
53940;BME280;39850;43.324;21.916;2023-09-19T15:39:09;989.0;;;23.5;58.0
53940;BME280;39850;43.324;21.916;2023-09-19T15:43:46;989.0;;;23.5;58.0
53940;BME280;39850;43.324;21.916;2023-09-19T15:48:22;989.0;;;23.5;58.0
53940;BME280;39850;43.324;21.916;2023-09-19T15:52:59;989.0;;;23.5;58.0
53940;BME280;39850;43.324;21.916;2023-09-19T15:57:39;989.0;;;23.5;58.0
53940;BME280;39850;43.324;21.916;2023-09-19T16:29:53;989.0;;;22.8;62.0
53940;BME280;39850;43.324;21.916;2023-09-19T16:34:30;989.0;;;22.8;62.0
53940;BME280;39850;43.324;21.916;2023-09-19T16:39:06;989.0;;;22.8;62.0
53940;BME280;39850;43.324;21.916;2023-09-19T16:43:43;989.0;;;22.8;62.0
53940;BME280;39850;43.324;21.916;2023-09-19T16:48:20;989.0;;;22.8;62.0
53940;BME280;39850;43.324;21.916;2023-09-19T16:52:56;989.0;;;22.8;62.0
53940;BME280;39850;43.324;21.916;2023-09-19T16:57:33;989.0;;;22.8;62.0
53940;BME280;39850;43.324;21.916;2023-09-19T17:02:09;990.0;;;22.7;62.0
53940;BME280;39850;43.324;21.916;2023-09-19T17:06:45;990.0;;;22.7;62.0
53940;BME280;39850;43.324;21.916;2023-09-19T17:11:22;990.0;;;22.6;62.0
53940;BME280;39850;43.324;21.916;2023-09-19T17:16:06;990.0;;;22.6;62.0
53940;BME280;39850;43.324;21.916;2023-09-19T17:53:13;992.0;;;19.3;86.0
53940;BME280;39850;43.324;21.916;2023-09-19T17:57:49;992.0;;;19.3;86.0
53940;BME280;39850;43.324;21.916;2023-09-19T18:02:26;992.0;;;19.6;85.0
53940;BME280;39850;43.324;21.916;2023-09-19T18:07:03;992.0;;;19.6;85.0
53940;BME280;39850;43.324;21.916;2023-09-19T18:11:41;992.0;;;20.0;85.0
53940;BME280;39850;43.324;21.916;2023-09-19T18:16:18;992.0;;;20.0;85.0
53940;BME280;39850;43.324;21.916;2023-09-19T18:21:01;992.0;;;20.0;85.0
53940;BME280;39850;43.324;21.916;2023-09-19T18:25:37;992.0;;;20.0;85.0
53940;BME280;39850;43.324;21.916;2023-09-19T18:30:15;993.0;;;20.0;85.0
53940;BME280;39850;43.324;21.916;2023-09-19T18:34:51;993.0;;;20.0;85.0
53940;BME280;39850;43.324;21.916;2023-09-19T19:11:46;991.0;;;17.3;99.0
53940;BME280;39850;43.324;21.916;2023-09-19T19:16:23;991.0;;;17.3;99.0
53940;BME280;39850;43.324;21.916;2023-09-19T19:21:03;992.0;;;17.5;97.0
53940;BME280;39850;43.324;21.916;2023-09-19T19:25:47;992.0;;;17.5;97.0
53940;BME280;39850;43.324;21.916;2023-09-19T19:30:24;992.0;;;17.6;94.0
53940;BME280;39850;43.324;21.916;2023-09-19T19:35:00;992.0;;;17.6;94.0
53940;BME280;39850;43.324;21.916;2023-09-19T19:39:38;992.0;;;17.9;93.0
53940;BME280;39850;43.324;21.916;2023-09-19T19:44:15;992.0;;;17.9;93.0
53940;BME280;39850;43.324;21.916;2023-09-19T19:48:51;992.0;;;17.9;93.0
53940;BME280;39850;43.324;21.916;2023-09-19T19:53:28;992.0;;;18.2;92.0
53940;BME280;39850;43.324;21.916;2023-09-19T19:58:05;992.0;;;18.2;92.0
53940;BME280;39850;43.324;21.916;2023-09-19T20:30:26;992.0;;;18.8;90.0
53940;BME280;39850;43.324;21.916;2023-09-19T20:35:07;992.0;;;18.8;90.0
53940;BME280;39850;43.324;21.916;2023-09-19T20:39:43;992.0;;;18.8;90.0
53940;BME280;39850;43.324;21.916;2023-09-19T20:44:20;992.0;;;19.0;90.0
53940;BME280;39850;43.324;21.916;2023-09-19T20:48:57;992.0;;;19.0;90.0
53940;BME280;39850;43.324;21.916;2023-09-19T20:53:36;993.0;;;19.1;90.0
53940;BME280;39850;43.324;21.916;2023-09-19T20:58:12;993.0;;;19.1;90.0
53940;BME280;39850;43.324;21.916;2023-09-19T21:02:49;993.0;;;19.1;90.0
53940;BME280;39850;43.324;21.916;2023-09-19T21:07:25;993.0;;;19.1;90.0
53940;BME280;39850;43.324;21.916;2023-09-19T21:12:02;993.0;;;19.1;89.0
53940;BME280;39850;43.324;21.916;2023-09-19T21:16:39;993.0;;;19.1;89.0
53940;BME280;39850;43.324;21.916;2023-09-19T21:53:35;993.0;;;19.1;90.0
53940;BME280;39850;43.324;21.916;2023-09-19T21:58:11;993.0;;;19.1;90.0
53940;BME280;39850;43.324;21.916;2023-09-19T22:02:48;993.0;;;19.1;90.0
53940;BME280;39850;43.324;21.916;2023-09-19T22:07:24;993.0;;;19.1;90.0
53940;BME280;39850;43.324;21.916;2023-09-19T22:12:00;993.0;;;19.1;90.0
53940;BME280;39850;43.324;21.916;2023-09-19T22:16:37;993.0;;;19.1;90.0
53940;BME280;39850;43.324;21.916;2023-09-19T22:21:19;993.0;;;19.1;90.0
53940;BME280;39850;43.324;21.916;2023-09-19T22:25:56;993.0;;;19.1;90.0
53940;BME280;39850;43.324;21.916;2023-09-19T22:30:39;993.0;;;19.1;90.0
53940;BME280;39850;43.324;21.916;2023-09-19T22:35:16;993.0;;;19.1;90.0
53940;BME280;39850;43.324;21.916;2023-09-19T22:39:52;993.0;;;19.1;90.0
53940;BME280;39850;43.324;21.916;2023-09-19T23:12:09;993.0;;;17.4;94.0
53940;BME280;39850;43.324;21.916;2023-09-19T23:16:45;993.0;;;17.4;94.0
53940;BME280;39850;43.324;21.916;2023-09-19T23:21:22;993.0;;;17.2;94.0
53940;BME280;39850;43.324;21.916;2023-09-19T23:25:58;993.0;;;17.2;94.0
53940;BME280;39850;43.324;21.916;2023-09-19T23:30:34;993.0;;;17.1;94.0
53940;BME280;39850;43.324;21.916;2023-09-19T23:35:11;993.0;;;17.1;94.0
53940;BME280;39850;43.324;21.916;2023-09-19T23:39:47;993.0;;;17.1;94.0
53940;BME280;39850;43.324;21.916;2023-09-19T23:44:24;993.0;;;17.1;94.0
53940;BME280;39850;43.324;21.916;2023-09-19T23:49:00;993.0;;;17.1;94.0
53940;BME280;39850;43.324;21.916;2023-09-19T23:53:37;993.0;;;17.1;93.0
53940;BME280;39850;43.324;21.916;2023-09-19T23:58:13;993.0;;;17.1;93.0
